sensor_id;sensor_type;location;lat;lon;timestamp;pressure;altitude;pressure_sealevel;temperature;humidity
32197;BME280;18697;42.770;23.400;2023-05-22T00:01:03;95359.63;;;16.50;71.15
32197;BME280;18697;42.770;23.400;2023-05-22T00:03:31;95349.19;;;16.56;70.59
32197;BME280;18697;42.770;23.400;2023-05-22T00:05:57;95343.06;;;16.58;69.75
32197;BME280;18697;42.770;23.400;2023-05-22T00:08:24;95357.88;;;16.69;70.33
32197;BME280;18697;42.770;23.400;2023-05-22T00:10:50;95363.22;;;16.67;69.54
32197;BME280;18697;42.770;23.400;2023-05-22T00:13:15;95355.28;;;16.55;69.55
32197;BME280;18697;42.770;23.400;2023-05-22T00:15:40;95354.78;;;16.51;70.13
32197;BME280;18697;42.770;23.400;2023-05-22T00:18:06;95356.84;;;16.56;70.34
32197;BME280;18697;42.770;23.400;2023-05-22T00:20:32;95356.56;;;16.48;70.63
32197;BME280;18697;42.770;23.400;2023-05-22T00:23:03;95361.41;;;16.42;71.02
32197;BME280;18697;42.770;23.400;2023-05-22T00:25:29;95354.78;;;16.45;71.25
32197;BME280;18697;42.770;23.400;2023-05-22T00:27:54;95354.53;;;16.37;71.00
32197;BME280;18697;42.770;23.400;2023-05-22T00:30:20;95345.63;;;16.33;71.19
32197;BME280;18697;42.770;23.400;2023-05-22T00:32:45;95349.97;;;16.23;71.70
32197;BME280;18697;42.770;23.400;2023-05-22T00:35:10;95348.44;;;16.17;72.14
32197;BME280;18697;42.770;23.400;2023-05-22T00:37:36;95348.16;;;16.09;72.26
32197;BME280;18697;42.770;23.400;2023-05-22T00:40:01;95354.00;;;15.94;73.00
32197;BME280;18697;42.770;23.400;2023-05-22T00:42:27;95347.88;;;15.90;73.08
32197;BME280;18697;42.770;23.400;2023-05-22T00:44:53;95342.78;;;15.89;73.29
32197;BME280;18697;42.770;23.400;2023-05-22T00:47:18;95349.88;;;15.84;73.61
32197;BME280;18697;42.770;23.400;2023-05-22T00:49:44;95354.47;;;15.87;73.61
32197;BME280;18697;42.770;23.400;2023-05-22T00:52:11;95344.03;;;15.88;73.21
32197;BME280;18697;42.770;23.400;2023-05-22T00:54:38;95342.00;;;15.83;73.70
32197;BME280;18697;42.770;23.400;2023-05-22T00:57:04;95357.28;;;15.93;73.49
32197;BME280;18697;42.770;23.400;2023-05-22T00:59:30;95349.66;;;15.93;73.65
32197;BME280;18697;42.770;23.400;2023-05-22T01:01:57;95359.09;;;16.01;72.84
32197;BME280;18697;42.770;23.400;2023-05-22T01:04:22;95353.50;;;16.13;73.16
32197;BME280;18697;42.770;23.400;2023-05-22T01:06:49;95353.78;;;16.26;73.20
32197;BME280;18697;42.770;23.400;2023-05-22T01:09:14;95346.63;;;16.36;71.89
32197;BME280;18697;42.770;23.400;2023-05-22T01:14:24;95357.88;;;16.69;74.04
32197;BME280;18697;42.770;23.400;2023-05-22T01:19:51;95350.19;;;17.03;70.37
32197;BME280;18697;42.770;23.400;2023-05-22T01:31:05;95338.72;;;16.40;70.91
32197;BME280;18697;42.770;23.400;2023-05-22T01:33:41;95348.41;;;16.39;71.62
32197;BME280;18697;42.770;23.400;2023-05-22T01:36:07;95344.59;;;16.14;71.79
32197;BME280;18697;42.770;23.400;2023-05-22T01:38:34;95347.88;;;16.01;72.51
32197;BME280;18697;42.770;23.400;2023-05-22T01:41:00;95338.44;;;15.93;72.97
32197;BME280;18697;42.770;23.400;2023-05-22T01:43:26;95343.03;;;15.85;73.16
32197;BME280;18697;42.770;23.400;2023-05-22T01:45:51;95340.44;;;15.76;73.13
32197;BME280;18697;42.770;23.400;2023-05-22T01:48:17;95332.78;;;15.65;73.39
32197;BME280;18697;42.770;23.400;2023-05-22T01:50:42;95335.38;;;15.80;73.81
32197;BME280;18697;42.770;23.400;2023-05-22T02:00:55;95344.78;;;17.11;72.76
32197;BME280;18697;42.770;23.400;2023-05-22T02:03:27;95334.56;;;17.14;70.01
32197;BME280;18697;42.770;23.400;2023-05-22T02:05:54;95327.88;;;17.33;71.75
32197;BME280;18697;42.770;23.400;2023-05-22T02:08:22;95333.19;;;17.48;70.24
32197;BME280;18697;42.770;23.400;2023-05-22T02:10:49;95330.03;;;17.74;70.17
32197;BME280;18697;42.770;23.400;2023-05-22T02:13:17;95337.59;;;18.26;68.12
32197;BME280;18697;42.770;23.400;2023-05-22T02:15:45;95328.03;;;18.40;67.36
32197;BME280;18697;42.770;23.400;2023-05-22T02:18:11;95331.81;;;18.48;68.07
32197;BME280;18697;42.770;23.400;2023-05-22T02:20:40;95328.75;;;18.46;65.21
32197;BME280;18697;42.770;23.400;2023-05-22T02:23:06;95326.09;;;17.88;65.81
32197;BME280;18697;42.770;23.400;2023-05-22T02:25:31;95323.19;;;18.05;68.91
32197;BME280;18697;42.770;23.400;2023-05-22T02:27:56;95333.34;;;18.14;66.80
32197;BME280;18697;42.770;23.400;2023-05-22T02:30:22;95333.72;;;18.64;68.51
32197;BME280;18697;42.770;23.400;2023-05-22T02:32:47;95329.47;;;18.52;67.16
32197;BME280;18697;42.770;23.400;2023-05-22T02:35:13;95321.53;;;18.56;67.84
32197;BME280;18697;42.770;23.400;2023-05-22T02:37:38;95330.00;;;18.81;67.71
32197;BME280;18697;42.770;23.400;2023-05-22T02:40:04;95339.16;;;19.11;66.11
32197;BME280;18697;42.770;23.400;2023-05-22T02:42:30;95333.38;;;19.47;66.29
32197;BME280;18697;42.770;23.400;2023-05-22T02:44:56;95325.00;;;19.41;65.38
32197;BME280;18697;42.770;23.400;2023-05-22T02:47:21;95329.47;;;19.55;62.86
32197;BME280;18697;42.770;23.400;2023-05-22T02:49:46;95335.31;;;19.57;65.08
32197;BME280;18697;42.770;23.400;2023-05-22T02:52:12;95329.69;;;19.57;66.79
32197;BME280;18697;42.770;23.400;2023-05-22T02:54:37;95328.34;;;19.83;65.73
32197;BME280;18697;42.770;23.400;2023-05-22T02:57:03;95329.66;;;20.00;62.52
32197;BME280;18697;42.770;23.400;2023-05-22T02:59:28;95324.59;;;20.12;62.17
32197;BME280;18697;42.770;23.400;2023-05-22T03:01:54;95329.97;;;20.29;60.14
32197;BME280;18697;42.770;23.400;2023-05-22T03:04:20;95323.44;;;20.21;59.03
32197;BME280;18697;42.770;23.400;2023-05-22T03:06:45;95324.66;;;20.25;58.81
32197;BME280;18697;42.770;23.400;2023-05-22T03:09:11;95323.25;;;20.32;58.33
32197;BME280;18697;42.770;23.400;2023-05-22T03:11:36;95318.31;;;20.38;57.57
32197;BME280;18697;42.770;23.400;2023-05-22T03:14:02;95327.78;;;20.41;57.29
32197;BME280;18697;42.770;23.400;2023-05-22T03:16:27;95335.06;;;20.49;57.23
32197;BME280;18697;42.770;23.400;2023-05-22T03:19:09;95334.19;;;20.41;56.28
32197;BME280;18697;42.770;23.400;2023-05-22T03:21:35;95331.97;;;20.15;57.32
32197;BME280;18697;42.770;23.400;2023-05-22T03:24:01;95327.31;;;20.18;57.86
32197;BME280;18697;42.770;23.400;2023-05-22T03:26:26;95320.69;;;20.15;57.62
32197;BME280;18697;42.770;23.400;2023-05-22T03:28:53;95320.66;;;20.02;57.68
32197;BME280;18697;42.770;23.400;2023-05-22T03:31:18;95326.81;;;20.00;58.21
32197;BME280;18697;42.770;23.400;2023-05-22T03:33:43;95319.13;;;20.01;57.89
32197;BME280;18697;42.770;23.400;2023-05-22T03:36:09;95323.13;;;20.06;58.02
32197;BME280;18697;42.770;23.400;2023-05-22T03:38:34;95322.06;;;20.09;58.10
32197;BME280;18697;42.770;23.400;2023-05-22T03:40:59;95327.94;;;19.54;59.21
32197;BME280;18697;42.770;23.400;2023-05-22T03:43:25;95328.22;;;19.51;58.85
32197;BME280;18697;42.770;23.400;2023-05-22T03:45:50;95332.50;;;19.14;59.92
32197;BME280;18697;42.770;23.400;2023-05-22T03:48:16;95332.25;;;19.12;59.61
32197;BME280;18697;42.770;23.400;2023-05-22T03:50:41;95338.75;;;19.01;60.37
32197;BME280;18697;42.770;23.400;2023-05-22T03:53:06;95334.78;;;19.16;60.19
32197;BME280;18697;42.770;23.400;2023-05-22T03:55:32;95337.06;;;19.17;60.09
32197;BME280;18697;42.770;23.400;2023-05-22T03:57:57;95346.28;;;19.18;59.58
32197;BME280;18697;42.770;23.400;2023-05-22T04:00:23;95352.00;;;19.07;59.17
32197;BME280;18697;42.770;23.400;2023-05-22T04:02:48;95355.94;;;18.98;59.87
32197;BME280;18697;42.770;23.400;2023-05-22T04:05:15;95353.16;;;18.92;59.98
32197;BME280;18697;42.770;23.400;2023-05-22T04:07:40;95355.41;;;18.99;60.47
32197;BME280;18697;42.770;23.400;2023-05-22T04:10:06;95353.78;;;19.10;60.29
32197;BME280;18697;42.770;23.400;2023-05-22T04:12:32;95352.13;;;19.20;60.17
32197;BME280;18697;42.770;23.400;2023-05-22T04:14:57;95349.19;;;19.31;60.19
32197;BME280;18697;42.770;23.400;2023-05-22T04:17:25;95349.41;;;19.33;59.99
32197;BME280;18697;42.770;23.400;2023-05-22T04:19:54;95344.25;;;18.88;60.42
32197;BME280;18697;42.770;23.400;2023-05-22T04:22:22;95343.25;;;18.56;61.35
32197;BME280;18697;42.770;23.400;2023-05-22T04:24:47;95360.16;;;18.15;63.05
32197;BME280;18697;42.770;23.400;2023-05-22T04:27:13;95350.88;;;17.84;64.09
32197;BME280;18697;42.770;23.400;2023-05-22T04:29:39;95348.53;;;17.36;65.49
32197;BME280;18697;42.770;23.400;2023-05-22T04:32:06;95349.16;;;17.06;67.63
32197;BME280;18697;42.770;23.400;2023-05-22T04:34:35;95350.69;;;17.07;67.88
32197;BME280;18697;42.770;23.400;2023-05-22T04:37:02;95355.91;;;17.45;67.68
32197;BME280;18697;42.770;23.400;2023-05-22T04:39:28;95357.06;;;17.77;66.49
32197;BME280;18697;42.770;23.400;2023-05-22T04:41:53;95359.53;;;17.92;66.37
32197;BME280;18697;42.770;23.400;2023-05-22T04:44:19;95364.06;;;17.48;66.83
32197;BME280;18697;42.770;23.400;2023-05-22T04:46:47;95361.53;;;17.45;67.66
32197;BME280;18697;42.770;23.400;2023-05-22T04:49:12;95346.94;;;17.57;68.11
32197;BME280;18697;42.770;23.400;2023-05-22T04:51:38;95353.13;;;17.39;68.50
32197;BME280;18697;42.770;23.400;2023-05-22T04:54:04;95348.97;;;17.57;67.89
32197;BME280;18697;42.770;23.400;2023-05-22T04:56:29;95362.75;;;17.66;68.51
32197;BME280;18697;42.770;23.400;2023-05-22T04:58:55;95353.69;;;17.15;70.56
32197;BME280;18697;42.770;23.400;2023-05-22T05:01:21;95358.09;;;16.94;72.70
32197;BME280;18697;42.770;23.400;2023-05-22T05:03:47;95363.22;;;16.79;73.43
32197;BME280;18697;42.770;23.400;2023-05-22T05:06:12;95364.75;;;16.80;73.12
32197;BME280;18697;42.770;23.400;2023-05-22T05:08:38;95361.41;;;17.03;72.48
32197;BME280;18697;42.770;23.400;2023-05-22T05:11:03;95360.31;;;17.23;72.71
32197;BME280;18697;42.770;23.400;2023-05-22T05:13:29;95359.63;;;17.06;72.84
32197;BME280;18697;42.770;23.400;2023-05-22T05:15:57;95361.94;;;16.96;73.38
32197;BME280;18697;42.770;23.400;2023-05-22T05:18:23;95368.28;;;17.08;72.43
32197;BME280;18697;42.770;23.400;2023-05-22T05:20:48;95365.44;;;17.14;71.26
32197;BME280;18697;42.770;23.400;2023-05-22T05:23:13;95369.44;;;17.46;71.09
32197;BME280;18697;42.770;23.400;2023-05-22T05:25:39;95375.38;;;17.15;71.17
32197;BME280;18697;42.770;23.400;2023-05-22T05:28:05;95377.41;;;17.25;72.09
32197;BME280;18697;42.770;23.400;2023-05-22T05:30:38;95375.38;;;17.15;71.78
32197;BME280;18697;42.770;23.400;2023-05-22T05:33:05;95374.94;;;16.94;73.06
32197;BME280;18697;42.770;23.400;2023-05-22T05:35:30;95369.31;;;16.99;72.24
32197;BME280;18697;42.770;23.400;2023-05-22T05:37:56;95374.16;;;16.99;72.01
32197;BME280;18697;42.770;23.400;2023-05-22T05:40:22;95371.84;;;17.03;72.38
32197;BME280;18697;42.770;23.400;2023-05-22T05:42:48;95372.78;;;17.33;71.42
32197;BME280;18697;42.770;23.400;2023-05-22T05:45:13;95371.53;;;17.18;70.85
32197;BME280;18697;42.770;23.400;2023-05-22T05:47:39;95377.38;;;17.31;70.91
32197;BME280;18697;42.770;23.400;2023-05-22T05:50:05;95375.88;;;17.24;70.50
32197;BME280;18697;42.770;23.400;2023-05-22T05:52:31;95368.38;;;17.55;68.93
32197;BME280;18697;42.770;23.400;2023-05-22T05:54:58;95370.25;;;17.93;68.91
32197;BME280;18697;42.770;23.400;2023-05-22T05:57:25;95368.44;;;18.37;66.95
32197;BME280;18697;42.770;23.400;2023-05-22T05:59:51;95378.09;;;18.06;64.89
32197;BME280;18697;42.770;23.400;2023-05-22T06:02:16;95374.97;;;18.15;66.80
32197;BME280;18697;42.770;23.400;2023-05-22T06:04:41;95384.44;;;18.53;65.61
32197;BME280;18697;42.770;23.400;2023-05-22T06:07:07;95373.19;;;18.53;65.11
32197;BME280;18697;42.770;23.400;2023-05-22T06:09:32;95369.69;;;18.77;65.76
32197;BME280;18697;42.770;23.400;2023-05-22T06:11:58;95369.47;;;18.99;65.74
32197;BME280;18697;42.770;23.400;2023-05-22T06:14:23;95369.50;;;19.24;65.17
32197;BME280;18697;42.770;23.400;2023-05-22T06:16:49;95377.75;;;19.41;64.64
32197;BME280;18697;42.770;23.400;2023-05-22T06:19:14;95376.59;;;19.55;63.59
32197;BME280;18697;42.770;23.400;2023-05-22T06:21:40;95381.22;;;19.52;63.15
32197;BME280;18697;42.770;23.400;2023-05-22T06:24:05;95386.44;;;19.67;62.34
32197;BME280;18697;42.770;23.400;2023-05-22T06:26:31;95381.59;;;19.86;61.76
32197;BME280;18697;42.770;23.400;2023-05-22T06:28:57;95378.69;;;19.92;62.01
32197;BME280;18697;42.770;23.400;2023-05-22T06:31:22;95376.03;;;19.99;61.83
32197;BME280;18697;42.770;23.400;2023-05-22T06:33:48;95389.06;;;20.02;61.61
32197;BME280;18697;42.770;23.400;2023-05-22T06:39:36;95376.56;;;19.98;61.75
32197;BME280;18697;42.770;23.400;2023-05-22T06:42:01;95386.16;;;19.89;61.46
32197;BME280;18697;42.770;23.400;2023-05-22T06:44:27;95387.25;;;20.05;61.12
32197;BME280;18697;42.770;23.400;2023-05-22T06:46:52;95386.22;;;20.21;60.58
32197;BME280;18697;42.770;23.400;2023-05-22T06:49:18;95370.34;;;20.37;60.02
32197;BME280;18697;42.770;23.400;2023-05-22T06:51:44;95382.19;;;20.54;59.40
32197;BME280;18697;42.770;23.400;2023-05-22T06:54:10;95368.44;;;20.64;58.87
32197;BME280;18697;42.770;23.400;2023-05-22T06:56:38;95374.34;;;20.79;58.47
32197;BME280;18697;42.770;23.400;2023-05-22T06:59:03;95361.66;;;20.86;58.31
32197;BME280;18697;42.770;23.400;2023-05-22T07:01:29;95375.91;;;21.07;58.08
32197;BME280;18697;42.770;23.400;2023-05-22T07:03:56;95376.25;;;21.16;57.49
32197;BME280;18697;42.770;23.400;2023-05-22T07:06:22;95372.69;;;21.16;56.24
32197;BME280;18697;42.770;23.400;2023-05-22T07:08:49;95382.47;;;20.70;55.55
32197;BME280;18697;42.770;23.400;2023-05-22T07:11:15;95370.09;;;20.41;56.29
32197;BME280;18697;42.770;23.400;2023-05-22T07:13:40;95369.84;;;20.20;57.45
32197;BME280;18697;42.770;23.400;2023-05-22T07:16:06;95374.09;;;19.46;57.87
32197;BME280;18697;42.770;23.400;2023-05-22T07:18:32;95371.19;;;19.57;56.45
32197;BME280;18697;42.770;23.400;2023-05-22T07:20:57;95374.75;;;20.00;58.25
32197;BME280;18697;42.770;23.400;2023-05-22T07:23:23;95373.19;;;19.81;57.40
32197;BME280;18697;42.770;23.400;2023-05-22T07:25:48;95363.78;;;19.54;57.34
32197;BME280;18697;42.770;23.400;2023-05-22T07:28:14;95368.38;;;19.57;57.73
32197;BME280;18697;42.770;23.400;2023-05-22T07:30:39;95368.41;;;19.76;57.35
32197;BME280;18697;42.770;23.400;2023-05-22T07:33:05;95368.63;;;20.15;58.29
32197;BME280;18697;42.770;23.400;2023-05-22T07:35:30;95375.19;;;20.42;57.41
32197;BME280;18697;42.770;23.400;2023-05-22T07:37:56;95362.03;;;20.63;57.30
32197;BME280;18697;42.770;23.400;2023-05-22T07:40:22;95361.63;;;20.73;56.64
32197;BME280;18697;42.770;23.400;2023-05-22T07:42:47;95359.47;;;20.79;54.72
32197;BME280;18697;42.770;23.400;2023-05-22T07:45:12;95362.97;;;20.34;54.98
32197;BME280;18697;42.770;23.400;2023-05-22T07:47:38;95363.19;;;20.36;54.59
32197;BME280;18697;42.770;23.400;2023-05-22T07:50:03;95359.53;;;20.60;55.85
32197;BME280;18697;42.770;23.400;2023-05-22T07:52:29;95361.44;;;20.52;53.48
32197;BME280;18697;42.770;23.400;2023-05-22T07:54:56;95355.19;;;20.59;53.91
32197;BME280;18697;42.770;23.400;2023-05-22T07:57:22;95353.16;;;20.73;54.87
32197;BME280;18697;42.770;23.400;2023-05-22T07:59:47;95351.34;;;20.75;54.00
32197;BME280;18697;42.770;23.400;2023-05-22T08:02:13;95356.25;;;20.37;54.84
32197;BME280;18697;42.770;23.400;2023-05-22T08:04:41;95352.00;;;20.49;54.70
32197;BME280;18697;42.770;23.400;2023-05-22T08:07:06;95347.16;;;20.63;54.74
32197;BME280;18697;42.770;23.400;2023-05-22T08:09:33;95350.34;;;20.86;54.28
32197;BME280;18697;42.770;23.400;2023-05-22T08:11:58;95348.38;;;20.67;53.61
32197;BME280;18697;42.770;23.400;2023-05-22T08:14:24;95345.25;;;20.71;52.78
32197;BME280;18697;42.770;23.400;2023-05-22T08:16:49;95348.28;;;20.73;54.13
32197;BME280;18697;42.770;23.400;2023-05-22T08:19:15;95347.53;;;20.86;53.13
32197;BME280;18697;42.770;23.400;2023-05-22T08:21:40;95351.97;;;20.81;52.88
32197;BME280;18697;42.770;23.400;2023-05-22T08:24:06;95350.03;;;20.76;53.20
32197;BME280;18697;42.770;23.400;2023-05-22T08:26:32;95354.03;;;20.81;53.67
32197;BME280;18697;42.770;23.400;2023-05-22T08:28:58;95349.53;;;20.59;53.44
32197;BME280;18697;42.770;23.400;2023-05-22T08:31:24;95352.00;;;20.49;53.59
32197;BME280;18697;42.770;23.400;2023-05-22T08:33:49;95355.91;;;20.46;53.39
32197;BME280;18697;42.770;23.400;2023-05-22T08:36:14;95349.19;;;20.49;54.43
32197;BME280;18697;42.770;23.400;2023-05-22T08:38:40;95354.66;;;20.60;53.10
32197;BME280;18697;42.770;23.400;2023-05-22T08:41:06;95351.88;;;20.87;53.63
32197;BME280;18697;42.770;23.400;2023-05-22T08:43:32;95355.75;;;20.71;51.83
32197;BME280;18697;42.770;23.400;2023-05-22T08:46:06;95351.88;;;20.74;50.18
32197;BME280;18697;42.770;23.400;2023-05-22T08:48:33;95349.59;;;20.85;49.74
32197;BME280;18697;42.770;23.400;2023-05-22T08:51:03;95349.38;;;20.83;51.40
32197;BME280;18697;42.770;23.400;2023-05-22T08:53:34;95346.91;;;20.80;51.87
32197;BME280;18697;42.770;23.400;2023-05-22T08:56:01;95352.53;;;20.80;50.48
32197;BME280;18697;42.770;23.400;2023-05-22T08:58:27;95350.00;;;20.63;50.24
32197;BME280;18697;42.770;23.400;2023-05-22T09:00:53;95352.19;;;20.83;49.55
32197;BME280;18697;42.770;23.400;2023-05-22T09:03:20;95338.19;;;20.78;49.25
32197;BME280;18697;42.770;23.400;2023-05-22T09:05:50;95344.38;;;20.76;49.41
32197;BME280;18697;42.770;23.400;2023-05-22T09:08:16;95349.41;;;20.51;49.36
32197;BME280;18697;42.770;23.400;2023-05-22T09:10:42;95349.28;;;20.76;49.10
32197;BME280;18697;42.770;23.400;2023-05-22T09:13:08;95352.44;;;20.98;48.88
32197;BME280;18697;42.770;23.400;2023-05-22T09:15:35;95348.25;;;21.18;47.98
32197;BME280;18697;42.770;23.400;2023-05-22T09:18:02;95355.47;;;21.33;49.12
32197;BME280;18697;42.770;23.400;2023-05-22T09:20:28;95356.88;;;21.39;47.51
32197;BME280;18697;42.770;23.400;2023-05-22T09:22:54;95351.22;;;21.52;49.86
32197;BME280;18697;42.770;23.400;2023-05-22T09:25:21;95351.56;;;21.49;49.74
32197;BME280;18697;42.770;23.400;2023-05-22T09:27:47;95358.59;;;21.55;48.45
32197;BME280;18697;42.770;23.400;2023-05-22T09:30:19;95346.78;;;21.44;46.80
32197;BME280;18697;42.770;23.400;2023-05-22T09:32:47;95356.13;;;21.52;49.76
32197;BME280;18697;42.770;23.400;2023-05-22T09:35:13;95340.47;;;21.24;48.58
32197;BME280;18697;42.770;23.400;2023-05-22T09:37:39;95348.66;;;21.09;51.15
32197;BME280;18697;42.770;23.400;2023-05-22T09:40:07;95344.16;;;20.74;51.12
32197;BME280;18697;42.770;23.400;2023-05-22T09:42:33;95350.34;;;20.73;52.54
32197;BME280;18697;42.770;23.400;2023-05-22T09:45:07;95352.72;;;20.69;51.25
32197;BME280;18697;42.770;23.400;2023-05-22T09:47:33;95352.69;;;20.55;49.96
32197;BME280;18697;42.770;23.400;2023-05-22T09:50:01;95359.03;;;20.43;51.87
32197;BME280;18697;42.770;23.400;2023-05-22T09:52:32;95349.84;;;20.37;53.23
32197;BME280;18697;42.770;23.400;2023-05-22T09:55:02;95355.75;;;20.39;51.82
32197;BME280;18697;42.770;23.400;2023-05-22T09:57:31;95357.72;;;20.44;51.87
32197;BME280;18697;42.770;23.400;2023-05-22T09:59:58;95356.97;;;20.43;51.48
32197;BME280;18697;42.770;23.400;2023-05-22T10:02:26;95366.19;;;20.44;52.53
32197;BME280;18697;42.770;23.400;2023-05-22T10:04:52;95360.38;;;20.36;51.83
32197;BME280;18697;42.770;23.400;2023-05-22T10:07:21;95357.34;;;20.34;51.84
32197;BME280;18697;42.770;23.400;2023-05-22T10:10:02;95354.75;;;20.36;53.26
32197;BME280;18697;42.770;23.400;2023-05-22T10:12:31;95359.25;;;20.45;52.88
32197;BME280;18697;42.770;23.400;2023-05-22T10:14:57;95344.84;;;20.48;54.63
32197;BME280;18697;42.770;23.400;2023-05-22T10:17:24;95347.28;;;20.39;52.09
32197;BME280;18697;42.770;23.400;2023-05-22T10:19:52;95348.50;;;20.43;53.50
32197;BME280;18697;42.770;23.400;2023-05-22T10:22:19;95355.81;;;20.33;54.68
32197;BME280;18697;42.770;23.400;2023-05-22T10:24:47;95344.84;;;20.29;54.18
32197;BME280;18697;42.770;23.400;2023-05-22T10:27:13;95350.03;;;20.25;54.31
32197;BME280;18697;42.770;23.400;2023-05-22T10:29:48;95354.22;;;20.19;55.28
32197;BME280;18697;42.770;23.400;2023-05-22T10:35:06;95347.44;;;20.27;54.18
32197;BME280;18697;42.770;23.400;2023-05-22T10:40:18;95350.00;;;20.63;51.70
32197;BME280;18697;42.770;23.400;2023-05-22T10:42:45;95346.13;;;20.79;51.45
32197;BME280;18697;42.770;23.400;2023-05-22T10:45:11;95329.13;;;21.11;52.56
32197;BME280;18697;42.770;23.400;2023-05-22T10:47:37;95340.34;;;21.43;51.80
32197;BME280;18697;42.770;23.400;2023-05-22T10:50:16;95324.97;;;21.78;50.75
32197;BME280;18697;42.770;23.400;2023-05-22T10:53:32;95325.50;;;21.90;46.87
32197;BME280;18697;42.770;23.400;2023-05-22T10:55:58;95336.63;;;21.75;48.02
32197;BME280;18697;42.770;23.400;2023-05-22T10:58:31;95331.53;;;21.60;48.22
32197;BME280;18697;42.770;23.400;2023-05-22T11:01:15;95330.09;;;21.67;48.21
32197;BME280;18697;42.770;23.400;2023-05-22T11:08:57;95329.66;;;21.76;49.12
32197;BME280;18697;42.770;23.400;2023-05-22T11:11:26;95331.22;;;21.50;47.02
32197;BME280;18697;42.770;23.400;2023-05-22T11:13:52;95334.94;;;21.45;48.66
32197;BME280;18697;42.770;23.400;2023-05-22T11:16:18;95330.59;;;21.44;48.26
32197;BME280;18697;42.770;23.400;2023-05-22T11:18:43;95329.38;;;21.40;49.44
32197;BME280;18697;42.770;23.400;2023-05-22T11:21:10;95328.78;;;21.02;48.98
32197;BME280;18697;42.770;23.400;2023-05-22T11:23:38;95332.03;;;20.92;51.83
32197;BME280;18697;42.770;23.400;2023-05-22T11:26:20;95338.63;;;20.69;50.41
32197;BME280;18697;42.770;23.400;2023-05-22T11:28:50;95344.66;;;20.59;52.00
32197;BME280;18697;42.770;23.400;2023-05-22T11:31:18;95331.50;;;20.49;53.21
32197;BME280;18697;42.770;23.400;2023-05-22T11:33:47;95346.00;;;20.40;52.97
32197;BME280;18697;42.770;23.400;2023-05-22T11:36:13;95355.66;;;20.44;53.30
32197;BME280;18697;42.770;23.400;2023-05-22T11:38:40;95361.06;;;20.23;52.50
32197;BME280;18697;42.770;23.400;2023-05-22T11:41:08;95362.97;;;20.15;53.69
32197;BME280;18697;42.770;23.400;2023-05-22T11:43:34;95364.31;;;19.95;54.78
32197;BME280;18697;42.770;23.400;2023-05-22T11:46:08;95352.16;;;19.63;55.64
32197;BME280;18697;42.770;23.400;2023-05-22T11:48:34;95363.06;;;19.72;54.75
32197;BME280;18697;42.770;23.400;2023-05-22T11:51:03;95366.97;;;19.20;55.29
32197;BME280;18697;42.770;23.400;2023-05-22T11:53:33;95367.78;;;18.91;55.26
32197;BME280;18697;42.770;23.400;2023-05-22T11:56:03;95369.78;;;18.66;55.88
32197;BME280;18697;42.770;23.400;2023-05-22T11:58:29;95379.81;;;18.56;56.08
32197;BME280;18697;42.770;23.400;2023-05-22T12:01:02;95380.69;;;18.39;57.55
32197;BME280;18697;42.770;23.400;2023-05-22T12:03:29;95383.22;;;18.43;58.92
32197;BME280;18697;42.770;23.400;2023-05-22T12:05:57;95376.53;;;18.52;59.06
32197;BME280;18697;42.770;23.400;2023-05-22T12:08:26;95366.09;;;18.77;58.14
32197;BME280;18697;42.770;23.400;2023-05-22T12:10:52;95376.88;;;18.73;59.61
32197;BME280;18697;42.770;23.400;2023-05-22T12:13:26;95385.81;;;18.41;60.66
32197;BME280;18697;42.770;23.400;2023-05-22T12:16:01;95381.09;;;18.55;61.60
32197;BME280;18697;42.770;23.400;2023-05-22T12:18:41;95370.00;;;18.68;61.29
32197;BME280;18697;42.770;23.400;2023-05-22T12:21:06;95374.47;;;18.52;62.93
32197;BME280;18697;42.770;23.400;2023-05-22T12:23:32;95389.31;;;18.12;64.39
32197;BME280;18697;42.770;23.400;2023-05-22T12:25:59;95379.44;;;17.94;66.61
32197;BME280;18697;42.770;23.400;2023-05-22T12:28:26;95385.03;;;17.99;67.02
32197;BME280;18697;42.770;23.400;2023-05-22T12:30:52;95380.56;;;17.80;67.34
32197;BME280;18697;42.770;23.400;2023-05-22T12:33:19;95377.00;;;17.73;67.00
32197;BME280;18697;42.770;23.400;2023-05-22T12:35:49;95370.69;;;17.51;66.86
32197;BME280;18697;42.770;23.400;2023-05-22T12:38:19;95374.50;;;17.59;68.69
32197;BME280;18697;42.770;23.400;2023-05-22T12:40:45;95372.44;;;17.70;69.82
32197;BME280;18697;42.770;23.400;2023-05-22T12:43:11;95372.91;;;17.75;70.03
32197;BME280;18697;42.770;23.400;2023-05-22T12:45:36;95369.00;;;17.89;71.22
32197;BME280;18697;42.770;23.400;2023-05-22T12:48:02;95362.13;;;17.84;70.95
32197;BME280;18697;42.770;23.400;2023-05-22T12:50:27;95356.84;;;17.75;71.78
32197;BME280;18697;42.770;23.400;2023-05-22T12:52:52;95358.34;;;17.82;72.00
32197;BME280;18697;42.770;23.400;2023-05-22T12:55:18;95353.16;;;17.86;72.36
32197;BME280;18697;42.770;23.400;2023-05-22T12:57:43;95352.53;;;18.10;71.65
32197;BME280;18697;42.770;23.400;2023-05-22T13:00:09;95352.78;;;18.12;71.40
32197;BME280;18697;42.770;23.400;2023-05-22T13:02:35;95343.31;;;18.15;68.47
32197;BME280;18697;42.770;23.400;2023-05-22T13:05:00;95344.22;;;18.28;69.02
32197;BME280;18697;42.770;23.400;2023-05-22T13:07:26;95338.00;;;18.41;65.74
32197;BME280;18697;42.770;23.400;2023-05-22T13:09:51;95331.25;;;18.55;66.10
32197;BME280;18697;42.770;23.400;2023-05-22T13:12:17;95334.81;;;18.86;64.93
32197;BME280;18697;42.770;23.400;2023-05-22T13:14:43;95320.22;;;19.12;63.78
32197;BME280;18697;42.770;23.400;2023-05-22T13:17:08;95322.75;;;19.15;62.94
32197;BME280;18697;42.770;23.400;2023-05-22T13:19:34;95309.69;;;19.18;60.73
32197;BME280;18697;42.770;23.400;2023-05-22T13:22:00;95315.94;;;19.29;57.13
32197;BME280;18697;42.770;23.400;2023-05-22T13:24:25;95307.72;;;19.50;56.97